Time;durP1;ratioP1;P1;durP2;ratioP2;P2;SDS_P1;SDS_P2;PMS_P1;PMS_P2;Temp;Humidity;BMP_temperature;BMP_pressure;BME280_temperature;BME280_humidity;BME280_pressure;Samples;Min_cycle;Max_cycle;Signal;HPM_P1;HPM_P2
2023/07/06 00:00:06;;;;;;;;;;;;;;;14.83;100.00;101447.84;10481005;28;20375;-69
2023/07/06 00:05:09;;;;;;;;;;;;;;;14.59;100.00;101445.00;10498564;28;20405;-69
2023/07/06 00:10:11;;;;;;;;;;;;;;;14.96;100.00;101445.25;10498486;28;20409;-69
2023/07/06 00:15:13;;;;;;;;;;;;;;;14.72;100.00;101452.94;10498226;28;19928;-72
2023/07/06 00:20:16;;;;;;;;;;;;;;;14.79;100.00;101461.31;10480528;28;20298;-70
2023/07/06 00:25:20;;;;;;;;;;;;;;;14.61;100.00;101456.28;10498118;28;19928;-70
2023/07/06 00:30:40;;;;;;;;;;;;;;;14.77;100.00;101455.28;10498261;28;19931;-69
2023/07/06 00:35:42;;;;;;;;;;;;;;;14.67;100.00;101449.75;10498258;28;20402;-70
2023/07/06 00:40:46;;;;;;;;;;;;;;;14.73;100.00;101464.34;10506457;28;19924;-69
2023/07/06 00:45:56;;;;;;;;;;;;;;;14.75;100.00;101460.66;10488484;28;19932;-69
2023/07/06 00:51:00;;;;;;;;;;;;;;;14.82;100.00;101461.13;10488191;28;20318;-69
2023/07/06 00:56:03;;;;;;;;;;;;;;;14.71;100.00;101459.19;10505772;28;19931;-70
2023/07/06 01:01:06;;;;;;;;;;;;;;;14.91;100.00;101457.91;10487741;28;20294;-70
2023/07/06 01:06:08;;;;;;;;;;;;;;;14.88;100.00;101457.22;10487698;28;19931;-69
2023/07/06 01:11:14;;;;;;;;;;;;;;;14.61;100.00;101464.19;10504779;28;19924;-69
2023/07/06 01:16:30;;;;;;;;;;;;;;;14.67;100.00;101458.50;10488472;28;19924;-69
2023/07/06 01:21:41;;;;;;;;;;;;;;;14.64;100.00;101453.47;10487015;28;19986;-70
2023/07/06 01:27:02;;;;;;;;;;;;;;;14.61;100.00;101453.66;10486803;28;20375;-70
2023/07/06 01:32:06;;;;;;;;;;;;;;;14.39;100.00;101450.63;10504453;28;19932;-70
2023/07/06 01:37:14;;;;;;;;;;;;;;;14.36;100.00;101456.13;10486400;28;20383;-70
2023/07/06 01:42:25;;;;;;;;;;;;;;;14.47;100.00;101456.28;10486356;28;20310;-70
2023/07/06 01:47:28;;;;;;;;;;;;;;;14.17;100.00;101456.41;10486228;28;19994;-70
2023/07/06 01:52:34;;;;;;;;;;;;;;;13.85;100.00;101461.88;10503541;28;19972;-70
2023/07/06 01:57:38;;;;;;;;;;;;;;;13.74;100.00;101455.47;10485564;28;19924;-70
2023/07/06 02:02:57;;;;;;;;;;;;;;;13.87;100.00;101454.72;10488124;28;19928;-70
2023/07/06 02:07:59;;;;;;;;;;;;;;;14.03;100.00;101463.38;10485495;28;19985;-70
2023/07/06 02:13:03;;;;;;;;;;;;;;;13.89;100.00;101458.97;10484741;28;19925;-70
2023/07/06 02:18:05;;;;;;;;;;;;;;;13.70;100.00;101453.09;10502849;28;19924;-70
2023/07/06 02:23:08;;;;;;;;;;;;;;;13.93;100.00;101446.44;10484570;28;19924;-70
2023/07/06 02:28:10;;;;;;;;;;;;;;;13.64;100.00;101453.50;10484522;28;20003;-70
2023/07/06 02:33:13;;;;;;;;;;;;;;;13.68;100.00;101455.81;10502128;28;19925;-70
2023/07/06 02:38:19;;;;;;;;;;;;;;;13.71;100.00;101449.53;10501850;28;19924;-70
2023/07/06 02:43:21;;;;;;;;;;;;;;;13.78;100.00;101445.59;10483866;28;19924;-70
2023/07/06 02:48:26;;;;;;;;;;;;;;;13.51;100.00;101448.09;10501525;28;20003;-70
2023/07/06 02:53:28;;;;;;;;;;;;;;;13.62;100.00;101448.31;10501017;28;19924;-70
2023/07/06 02:58:30;;;;;;;;;;;;;;;13.46;100.00;101452.78;10500321;28;20026;-70
2023/07/06 03:03:33;;;;;;;;;;;;;;;13.79;100.00;101449.09;10500616;28;19924;-70
2023/07/06 03:08:35;;;;;;;;;;;;;;;13.55;100.00;101453.09;10500447;28;19924;-70
2023/07/06 03:13:37;;;;;;;;;;;;;;;13.60;100.00;101458.09;10500105;28;20011;-70
2023/07/06 03:18:40;;;;;;;;;;;;;;;13.44;100.00;101460.78;10482570;28;19928;-70
2023/07/06 03:23:42;;;;;;;;;;;;;;;13.66;100.00;101456.88;10499905;28;19925;-70
2023/07/06 03:28:45;;;;;;;;;;;;;;;13.52;100.00;101465.59;10499896;28;19925;-70
2023/07/06 03:33:55;;;;;;;;;;;;;;;13.37;100.00;101478.69;10499448;28;19924;-70
2023/07/06 03:38:58;;;;;;;;;;;;;;;13.40;100.00;101468.91;10481785;28;19932;-71
2023/07/06 03:44:00;;;;;;;;;;;;;;;13.47;100.00;101484.28;10499429;28;19935;-70
2023/07/06 03:49:03;;;;;;;;;;;;;;;13.62;100.00;101473.78;10499118;28;19931;-70
2023/07/06 03:54:06;;;;;;;;;;;;;;;13.31;100.00;101476.38;10481376;28;20003;-70
2023/07/06 03:59:09;;;;;;;;;;;;;;;13.41;100.00;101482.00;10498774;28;20260;-70
2023/07/06 04:04:12;;;;;;;;;;;;;;;13.63;100.00;101489.47;10498970;28;20015;-70
2023/07/06 04:09:14;;;;;;;;;;;;;;;13.61;100.00;101486.06;10498814;28;19924;-70
2023/07/06 04:14:21;;;;;;;;;;;;;;;13.57;100.00;101479.31;10479390;28;20359;-70
2023/07/06 04:19:24;;;;;;;;;;;;;;;13.56;100.00;101482.88;10481445;28;19924;-70
2023/07/06 04:24:31;;;;;;;;;;;;;;;13.63;100.00;101486.00;10498319;28;20003;-70
2023/07/06 04:29:34;;;;;;;;;;;;;;;13.65;100.00;101492.88;10512597;22;20275;-66
2023/07/06 04:34:39;;;;;;;;;;;;;;;13.56;100.00;101496.88;10498263;28;20015;-66
2023/07/06 04:39:42;;;;;;;;;;;;;;;13.67;100.00;101495.41;10498266;28;19931;-66
2023/07/06 04:44:45;;;;;;;;;;;;;;;13.66;100.00;101498.97;10480335;28;19925;-66
2023/07/06 04:49:48;;;;;;;;;;;;;;;13.70;100.00;101508.38;10497795;28;20322;-65
2023/07/06 04:54:50;;;;;;;;;;;;;;;13.64;100.00;101509.59;10497630;28;19947;-66
2023/07/06 04:59:53;;;;;;;;;;;;;;;13.82;100.00;101509.41;10497684;28;20355;-66
2023/07/06 05:04:55;;;;;;;;;;;;;;;13.78;100.00;101506.13;10497822;28;19934;-66
2023/07/06 05:09:57;;;;;;;;;;;;;;;13.53;100.00;101515.50;10497506;28;19925;-66
2023/07/06 05:15:00;;;;;;;;;;;;;;;13.59;100.00;101516.91;10497539;28;20012;-65
2023/07/06 05:20:04;;;;;;;;;;;;;;;13.73;100.00;101509.06;10497731;28;19931;-66
2023/07/06 05:25:07;;;;;;;;;;;;;;;13.94;100.00;101514.81;10502478;28;19932;-65
2023/07/06 05:30:09;;;;;;;;;;;;;;;13.81;100.00;101521.75;10504437;28;20367;-66
2023/07/06 05:35:13;;;;;;;;;;;;;;;13.95;100.00;101523.53;10504413;28;19924;-66
2023/07/06 05:40:15;;;;;;;;;;;;;;;14.13;100.00;101522.44;10504383;28;19935;-66
2023/07/06 05:45:17;;;;;;;;;;;;;;;14.15;100.00;101532.88;10504197;28;19924;-66
2023/07/06 05:50:19;;;;;;;;;;;;;;;14.04;100.00;101528.25;10503868;28;19924;-65
2023/07/06 05:55:23;;;;;;;;;;;;;;;14.17;100.00;101538.91;10503523;28;20402;-66
2023/07/06 06:00:25;;;;;;;;;;;;;;;14.49;100.00;101538.69;10503554;28;19974;-65
2023/07/06 06:05:29;;;;;;;;;;;;;;;14.47;100.00;101546.72;10503171;28;19925;-66
2023/07/06 06:10:33;;;;;;;;;;;;;;;14.60;100.00;101546.81;10485750;28;20391;-66
2023/07/06 06:15:35;;;;;;;;;;;;;;;14.65;100.00;101549.19;10502830;28;19968;-66
2023/07/06 06:20:38;;;;;;;;;;;;;;;14.82;100.00;101556.00;10502838;28;19970;-66
2023/07/06 06:25:40;;;;;;;;;;;;;;;14.62;100.00;101563.38;10484607;28;19931;-65
2023/07/06 06:30:43;;;;;;;;;;;;;;;14.76;100.00;101559.03;10502522;28;19925;-66
2023/07/06 06:35:46;;;;;;;;;;;;;;;14.90;100.00;101564.28;10501304;28;19928;-66
2023/07/06 06:40:48;;;;;;;;;;;;;;;15.07;100.00;101575.56;10502075;28;19928;-66
2023/07/06 06:45:50;;;;;;;;;;;;;;;15.22;100.00;101578.03;10501607;28;20455;-70
2023/07/06 06:50:53;;;;;;;;;;;;;;;15.30;100.00;101588.09;10501501;28;19956;-66
2023/07/06 06:55:55;;;;;;;;;;;;;;;15.64;100.00;101591.19;10466987;28;20294;-66
2023/07/06 07:00:59;;;;;;;;;;;;;;;15.60;100.00;101593.19;10501278;28;19938;-66
2023/07/06 07:06:02;;;;;;;;;;;;;;;15.81;100.00;101599.81;10483342;28;20371;-67
2023/07/06 07:11:05;;;;;;;;;;;;;;;15.85;100.00;101611.84;10482924;28;19924;-66
2023/07/06 07:16:23;;;;;;;;;;;;;;;15.85;100.00;101615.31;10485104;28;19925;-66
2023/07/06 07:21:25;;;;;;;;;;;;;;;16.16;100.00;101618.56;10500224;28;20057;-66
2023/07/06 07:26:29;;;;;;;;;;;;;;;16.49;100.00;101617.16;10499964;28;19963;-65
2023/07/06 07:31:31;;;;;;;;;;;;;;;16.63;100.00;101632.09;10482467;28;19967;-65
2023/07/06 07:36:34;;;;;;;;;;;;;;;16.50;100.00;101635.56;10481849;28;20007;-66
2023/07/06 07:41:42;;;;;;;;;;;;;;;16.34;100.00;101640.25;10499391;28;20395;-66
2023/07/06 07:46:44;;;;;;;;;;;;;;;16.71;100.00;101645.63;10499069;28;19959;-66
2023/07/06 07:51:47;;;;;;;;;;;;;;;16.82;100.00;101652.78;10499315;28;20007;-66
2023/07/06 07:56:53;;;;;;;;;;;;;;;16.75;100.00;101651.53;10499068;28;19924;-66
2023/07/06 08:01:56;;;;;;;;;;;;;;;16.71;100.00;101658.84;10499225;28;19955;-66
2023/07/06 08:06:58;;;;;;;;;;;;;;;17.58;100.00;101657.03;10498748;28;19931;-65
2023/07/06 08:12:03;;;;;;;;;;;;;;;17.17;100.00;101663.56;10498576;28;19930;-65
2023/07/06 08:17:05;;;;;;;;;;;;;;;17.05;100.00;101672.38;10498333;28;20042;-65
2023/07/06 08:22:07;;;;;;;;;;;;;;;18.24;96.12;101663.69;10498245;28;19946;-64
2023/07/06 08:27:11;;;;;;;;;;;;;;;18.03;94.87;101674.97;10498235;28;19925;-64
2023/07/06 08:32:19;;;;;;;;;;;;;;;18.45;91.41;101683.28;10498112;28;19929;-65
2023/07/06 08:37:21;;;;;;;;;;;;;;;17.86;93.11;101683.31;10498250;28;19970;-65
2023/07/06 08:42:23;;;;;;;;;;;;;;;18.41;94.83;101694.22;10498131;28;19924;-64
2023/07/06 08:47:26;;;;;;;;;;;;;;;19.26;90.38;101689.34;10497841;28;20345;-64
2023/07/06 08:52:29;;;;;;;;;;;;;;;19.26;85.53;101692.00;10497774;28;19925;-65
2023/07/06 08:57:32;;;;;;;;;;;;;;;18.77;85.04;101687.88;10481555;28;20442;-65
2023/07/06 09:02:34;;;;;;;;;;;;;;;20.57;81.15;101691.81;10488156;28;19924;-65
2023/07/06 09:07:39;;;;;;;;;;;;;;;19.56;84.68;101697.63;10505394;28;19924;-66
2023/07/06 09:12:41;;;;;;;;;;;;;;;19.71;83.31;101696.34;10487389;28;19928;-66
2023/07/06 09:17:45;;;;;;;;;;;;;;;20.59;78.52;101694.34;10504952;28;19931;-66
2023/07/06 09:22:48;;;;;;;;;;;;;;;20.42;76.53;101699.34;10504719;28;19950;-67
2023/07/06 09:27:50;;;;;;;;;;;;;;;20.85;75.08;101686.00;10504672;28;19930;-67
2023/07/06 09:32:53;;;;;;;;;;;;;;;19.97;82.15;101691.59;10504424;28;19970;-67
2023/07/06 09:37:56;;;;;;;;;;;;;;;20.16;81.46;101701.53;10486654;28;20383;-67
2023/07/06 09:42:58;;;;;;;;;;;;;;;20.48;76.55;101697.13;10486506;28;19924;-68
2023/07/06 09:48:02;;;;;;;;;;;;;;;22.02;73.69;101684.41;10503798;28;19925;-68
2023/07/06 09:53:07;;;;;;;;;;;;;;;21.19;70.77;101685.69;10485811;28;19924;-68
2023/07/06 09:58:19;;;;;;;;;;;;;;;21.99;71.97;101694.47;10503448;28;19928;-68
2023/07/06 10:03:27;;;;;;;;;;;;;;;22.89;67.55;101679.84;10503693;28;20007;-68
2023/07/06 10:08:31;;;;;;;;;;;;;;;22.63;65.20;101691.19;10503031;28;20002;-68
2023/07/06 10:13:34;;;;;;;;;;;;;;;22.27;67.63;101690.97;10485151;28;19931;-69
2023/07/06 10:18:39;;;;;;;;;;;;;;;22.91;67.74;101680.53;10502744;28;19982;-69
2023/07/06 10:23:45;;;;;;;;;;;;;;;24.65;64.73;101678.50;10502489;28;19925;-69
2023/07/06 10:28:50;;;;;;;;;;;;;;;23.78;60.71;101678.31;10443070;28;20283;-69
2023/07/06 10:33:55;;;;;;;;;;;;;;;23.95;60.70;101673.16;10459348;28;19947;-69
2023/07/06 10:39:03;;;;;;;;;;;;;;;23.56;61.30;101672.44;10459370;28;20290;-69
2023/07/06 10:44:26;;;;;;;;;;;;;;;25.37;57.13;101668.25;10460265;28;20004;-69
2023/07/06 10:49:28;;;;;;;;;;;;;;;24.43;54.21;101667.31;10460209;28;20279;-69
2023/07/06 10:54:32;;;;;;;;;;;;;;;23.51;55.31;101668.53;10459821;28;19931;-69
2023/07/06 10:59:36;;;;;;;;;;;;;;;24.55;58.11;101665.22;10458534;28;19924;-69
2023/07/06 11:04:41;;;;;;;;;;;;;;;25.86;56.10;101667.44;10458217;28;20402;-69
2023/07/06 11:10:06;;;;;;;;;;;;;;;26.00;55.77;101659.75;10459159;28;20012;-69
2023/07/06 11:15:21;;;;;;;;;;;;;;;26.39;56.30;101664.38;10458870;28;19925;-69
2023/07/06 11:20:24;;;;;;;;;;;;;;;25.14;55.00;101676.00;10441295;28;20011;-69
2023/07/06 11:25:28;;;;;;;;;;;;;;;26.63;50.85;101682.31;10459571;28;19931;-68
2023/07/06 11:30:35;;;;;;;;;;;;;;;26.25;49.99;101682.03;10466003;28;19931;-68
2023/07/06 11:35:52;;;;;;;;;;;;;;;24.09;57.49;101685.94;10500063;28;19931;-68
2023/07/06 11:41:06;;;;;;;;;;;;;;;27.05;49.73;101670.41;10475075;28;19931;-68
2023/07/06 11:46:18;;;;;;;;;;;;;;;26.64;49.90;101679.44;10498967;28;20371;-68
2023/07/06 11:51:20;;;;;;;;;;;;;;;27.26;46.72;101672.47;10480883;28;19925;-68
2023/07/06 11:56:50;;;;;;;;;;;;;;;25.93;52.58;101671.13;10481545;28;20428;-68
2023/07/06 12:01:58;;;;;;;;;;;;;;;27.85;47.61;101666.50;10499145;28;20006;-68
2023/07/06 12:07:06;;;;;;;;;;;;;;;27.67;48.67;101664.16;10481528;28;19924;-68
2023/07/06 12:12:12;;;;;;;;;;;;;;;27.77;46.88;101669.25;10498566;28;19924;-67
2023/07/06 12:17:14;;;;;;;;;;;;;;;27.92;47.29;101669.31;10498431;28;20264;-68
2023/07/06 12:22:17;;;;;;;;;;;;;;;29.74;44.46;101668.78;10480634;28;20402;-67
2023/07/06 12:27:20;;;;;;;;;;;;;;;29.59;42.59;101671.59;10498083;28;20355;-66
2023/07/06 12:32:22;;;;;;;;;;;;;;;28.10;45.08;101686.00;10499796;28;19925;-66
2023/07/06 12:37:24;;;;;;;;;;;;;;;25.83;49.38;101678.50;10506823;28;19978;-65
2023/07/06 12:42:27;;;;;;;;;;;;;;;26.60;48.62;101680.78;10488917;28;19932;-66
2023/07/06 12:47:37;;;;;;;;;;;;;;;27.32;46.95;101677.16;10488710;28;19931;-66
2023/07/06 12:52:39;;;;;;;;;;;;;;;27.90;46.66;101674.88;10506039;28;20367;-66
2023/07/06 12:57:43;;;;;;;;;;;;;;;26.40;49.80;101682.19;10505814;28;19924;-67
2023/07/06 13:02:51;;;;;;;;;;;;;;;28.34;43.09;101670.63;10505640;28;19928;-67
2023/07/06 13:07:54;;;;;;;;;;;;;;;28.67;45.75;101683.75;10487776;28;19924;-66
2023/07/06 13:12:57;;;;;;;;;;;;;;;26.72;44.75;101678.59;10487724;28;19928;-66
2023/07/06 13:18:02;;;;;;;;;;;;;;;25.69;47.41;101681.88;10504953;28;20269;-66
2023/07/06 13:23:06;;;;;;;;;;;;;;;25.68;48.69;101681.00;10487890;28;19925;-66
2023/07/06 13:28:09;;;;;;;;;;;;;;;25.16;51.51;101684.72;10486745;28;20027;-65
2023/07/06 13:33:12;;;;;;;;;;;;;;;27.36;46.75;101677.66;10486619;28;19924;-68
2023/07/06 13:38:15;;;;;;;;;;;;;;;26.32;45.40;101686.53;10504233;28;19931;-67
2023/07/06 13:43:18;;;;;;;;;;;;;;;26.42;41.20;101680.16;10503718;28;19931;-68
2023/07/06 13:48:21;;;;;;;;;;;;;;;28.28;39.53;101690.22;10486791;28;20007;-67
2023/07/06 13:53:26;;;;;;;;;;;;;;;26.76;44.93;101676.41;10503753;28;20389;-66
2023/07/06 13:58:29;;;;;;;;;;;;;;;25.27;48.94;101685.44;10503635;28;20414;-66
2023/07/06 14:03:32;;;;;;;;;;;;;;;26.41;50.26;101689.22;10503961;28;20295;-67
2023/07/06 14:08:35;;;;;;;;;;;;;;;27.03;48.55;101675.94;10503141;28;19925;-66
2023/07/06 14:13:37;;;;;;;;;;;;;;;27.27;44.06;101681.34;10485195;28;19979;-62
2023/07/06 14:18:40;;;;;;;;;;;;;;;28.16;42.99;101679.06;10502714;28;19925;-62
2023/07/06 14:23:42;;;;;;;;;;;;;;;29.01;41.89;101668.84;10502527;28;19950;-62
2023/07/06 14:28:49;;;;;;;;;;;;;;;28.24;40.39;101670.06;10502286;28;19925;-62
2023/07/06 14:33:52;;;;;;;;;;;;;;;28.00;42.69;101677.34;10502073;28;19924;-62
2023/07/06 14:38:54;;;;;;;;;;;;;;;28.24;41.75;101668.19;10502181;28;20007;-62
2023/07/06 14:43:56;;;;;;;;;;;;;;;27.40;43.89;101677.13;10501708;28;19924;-62
2023/07/06 14:48:58;;;;;;;;;;;;;;;28.00;42.37;101666.59;10484030;28;19938;-62
2023/07/06 14:54:01;;;;;;;;;;;;;;;28.66;41.91;101672.13;10500778;28;20469;-62
2023/07/06 14:59:03;;;;;;;;;;;;;;;28.21;40.45;101671.28;10500877;28;19986;-62
2023/07/06 15:04:06;;;;;;;;;;;;;;;29.09;40.31;101668.75;10500870;28;20454;-62
2023/07/06 15:09:08;;;;;;;;;;;;;;;28.18;41.79;101671.63;10500617;28;19970;-62
2023/07/06 15:14:10;;;;;;;;;;;;;;;25.52;45.27;101668.44;10500398;28;19924;-62
2023/07/06 15:19:13;;;;;;;;;;;;;;;26.29;42.68;101662.75;10500375;28;19928;-62
2023/07/06 15:24:15;;;;;;;;;;;;;;;27.42;42.81;101658.13;10500361;28;19924;-61
2023/07/06 15:29:18;;;;;;;;;;;;;;;26.94;43.75;101654.66;10499785;28;19931;-61
2023/07/06 15:34:20;;;;;;;;;;;;;;;26.39;43.31;101659.84;10481927;28;19931;-61
2023/07/06 15:39:23;;;;;;;;;;;;;;;26.61;42.98;101655.63;10499604;28;19925;-61
2023/07/06 15:44:26;;;;;;;;;;;;;;;27.30;42.16;101651.47;10481677;28;19978;-61
2023/07/06 15:49:28;;;;;;;;;;;;;;;27.73;41.58;101643.75;10481616;28;20370;-61
2023/07/06 15:54:32;;;;;;;;;;;;;;;26.86;42.83;101644.78;10498275;28;20301;-61
2023/07/06 15:59:34;;;;;;;;;;;;;;;25.15;46.56;101642.00;10498799;28;20291;-61
2023/07/06 16:04:37;;;;;;;;;;;;;;;25.41;44.55;101641.94;10498861;28;19928;-61
2023/07/06 16:09:39;;;;;;;;;;;;;;;24.62;46.58;101649.38;10498537;28;19931;-61
2023/07/06 16:14:42;;;;;;;;;;;;;;;24.98;47.94;101647.34;10498474;28;19956;-61
2023/07/06 16:19:44;;;;;;;;;;;;;;;23.73;50.72;101645.84;10498452;28;19929;-61
2023/07/06 16:24:47;;;;;;;;;;;;;;;23.43;52.13;101655.94;10498286;28;20458;-61
2023/07/06 16:29:49;;;;;;;;;;;;;;;23.61;51.48;101652.44;10498116;28;19924;-61
2023/07/06 16:34:51;;;;;;;;;;;;;;;23.30;53.77;101660.81;10480308;28;20007;-61
2023/07/06 16:44:59;;;;;;;;;;;;;;;25.04;50.48;101635.97;10373028;28;20023;-71
2023/07/06 16:50:01;;;;;;;;;;;;;;;25.43;46.96;101639.09;10389459;28;20008;-71
2023/07/06 16:55:03;;;;;;;;;;;;;;;25.22;46.48;101630.47;10374145;28;19933;-71
2023/07/06 17:00:06;;;;;;;;;;;;;;;25.57;45.49;101633.91;10374437;28;19936;-71
2023/07/06 17:05:08;;;;;;;;;;;;;;;25.32;45.27;101638.41;10374233;28;19926;-71
2023/07/06 17:10:11;;;;;;;;;;;;;;;24.94;45.98;101637.09;10372731;28;20318;-71
2023/07/06 17:15:14;;;;;;;;;;;;;;;24.95;46.67;101646.81;10389014;28;19947;-70
2023/07/06 17:20:17;;;;;;;;;;;;;;;23.66;48.76;101650.97;10393311;28;20024;-70
2023/07/06 17:25:19;;;;;;;;;;;;;;;23.26;53.47;101652.25;10381345;28;20367;-67
2023/07/06 17:30:22;;;;;;;;;;;;;;;22.96;51.52;101656.91;10381255;28;19926;-66
2023/07/06 17:35:24;;;;;;;;;;;;;;;22.26;55.12;101669.78;10380923;28;19925;-67
2023/07/06 17:40:26;;;;;;;;;;;;;;;22.72;56.87;101669.94;10380655;28;19932;-66
2023/07/06 17:45:28;;;;;;;;;;;;;;;22.92;54.54;101655.50;10380625;28;20360;-66
2023/07/06 17:50:31;;;;;;;;;;;;;;;22.78;55.26;101658.69;10380622;28;19925;-67
2023/07/06 17:55:33;;;;;;;;;;;;;;;22.59;55.45;101664.91;10380356;28;20261;-66
2023/07/06 18:00:35;;;;;;;;;;;;;;;22.27;56.44;101668.78;10380242;28;19932;-64
2023/07/06 18:05:37;;;;;;;;;;;;;;;22.33;58.64;101649.56;10380027;28;19926;-64
2023/07/06 18:10:40;;;;;;;;;;;;;;;22.24;58.28;101663.72;10379612;28;20283;-72
2023/07/06 18:15:42;;;;;;;;;;;;;;;22.33;59.07;101660.22;10394753;28;19925;-72
2023/07/06 18:20:44;;;;;;;;;;;;;;;22.46;59.99;101670.59;10379306;28;19932;-72
2023/07/06 18:25:46;;;;;;;;;;;;;;;22.42;57.52;101674.53;10379283;28;19930;-72
2023/07/06 18:30:49;;;;;;;;;;;;;;;21.85;62.35;101677.94;10377496;28;20315;-71
2023/07/06 18:35:51;;;;;;;;;;;;;;;21.50;63.74;101673.16;10378629;28;19926;-72
2023/07/06 18:40:54;;;;;;;;;;;;;;;21.31;65.08;101673.94;10378589;28;19965;-70
2023/07/06 18:45:58;;;;;;;;;;;;;;;20.90;65.32;101681.94;10393437;28;19925;-71
2023/07/06 18:51:04;;;;;;;;;;;;;;;20.52;67.26;101695.88;10392880;28;20292;-72
2023/07/06 18:56:07;;;;;;;;;;;;;;;20.20;69.21;101694.97;10377844;28;19933;-71
2023/07/06 19:01:10;;;;;;;;;;;;;;;20.01;69.74;101694.84;10377952;28;19964;-71
2023/07/06 19:06:13;;;;;;;;;;;;;;;19.75;71.74;101700.47;10392567;28;19932;-71
2023/07/06 19:11:19;;;;;;;;;;;;;;;19.38;74.31;101707.91;10377530;28;19925;-70
2023/07/06 19:16:21;;;;;;;;;;;;;;;19.00;75.17;101706.50;10376983;28;19925;-71
2023/07/06 19:21:24;;;;;;;;;;;;;;;18.87;75.41;101709.28;10376939;28;19926;-71
2023/07/06 19:26:28;;;;;;;;;;;;;;;18.81;74.55;101715.03;10376784;28;20380;-70
2023/07/06 19:31:30;;;;;;;;;;;;;;;18.50;76.61;101718.22;10376604;28;19925;-71
2023/07/06 19:36:32;;;;;;;;;;;;;;;18.30;79.00;101727.69;10376532;28;19988;-71
2023/07/06 19:41:35;;;;;;;;;;;;;;;18.16;76.24;101733.22;10390775;28;20291;-71
2023/07/06 19:46:37;;;;;;;;;;;;;;;17.86;76.44;101729.19;10374862;28;20368;-71
2023/07/06 19:51:39;;;;;;;;;;;;;;;17.79;77.49;101731.44;10375965;28;19972;-71
2023/07/06 19:56:41;;;;;;;;;;;;;;;17.54;80.66;101739.47;10374529;28;20368;-71
2023/07/06 20:01:44;;;;;;;;;;;;;;;17.51;80.54;101748.47;10390907;28;20009;-71
2023/07/06 20:06:46;;;;;;;;;;;;;;;17.13;82.96;101762.63;10390518;28;19971;-71
2023/07/06 20:11:49;;;;;;;;;;;;;;;17.14;83.22;101761.66;10375521;28;19958;-71
2023/07/06 20:16:51;;;;;;;;;;;;;;;17.14;82.29;101766.97;10374967;28;19925;-71
2023/07/06 20:21:53;;;;;;;;;;;;;;;17.02;83.78;101758.06;10374908;28;20395;-71
2023/07/06 20:26:55;;;;;;;;;;;;;;;16.91;84.44;101768.53;10375109;28;20012;-71
2023/07/06 20:32:00;;;;;;;;;;;;;;;16.82;85.55;101764.72;10374755;28;19925;-71
2023/07/06 20:37:03;;;;;;;;;;;;;;;16.70;84.21;101776.13;10389781;28;20399;-71
2023/07/06 20:42:05;;;;;;;;;;;;;;;16.62;83.93;101778.44;10374498;28;19925;-71
2023/07/06 20:47:10;;;;;;;;;;;;;;;16.49;86.67;101781.06;10374549;28;20588;-71
2023/07/06 20:52:12;;;;;;;;;;;;;;;16.37;88.82;101789.81;10374391;28;19976;-71
2023/07/06 20:57:15;;;;;;;;;;;;;;;16.24;85.64;101789.75;10382084;28;19932;-71
2023/07/06 21:02:18;;;;;;;;;;;;;;;16.29;85.70;101792.94;10397567;28;20020;-71
2023/07/06 21:07:20;;;;;;;;;;;;;;;16.21;85.17;101797.91;10382295;28;20008;-71
2023/07/06 21:12:23;;;;;;;;;;;;;;;16.24;86.78;101806.47;10397298;28;19925;-71
2023/07/06 21:17:25;;;;;;;;;;;;;;;16.11;87.88;101810.88;10396896;28;20491;-71
2023/07/06 21:22:27;;;;;;;;;;;;;;;15.94;90.79;101807.50;10381482;28;19983;-71
2023/07/06 21:27:29;;;;;;;;;;;;;;;15.91;92.00;101807.69;10381318;28;20386;-71
2023/07/06 21:32:32;;;;;;;;;;;;;;;15.64;91.95;101812.91;10381115;28;19926;-71
2023/07/06 21:37:34;;;;;;;;;;;;;;;15.79;90.39;101811.97;10380831;28;20308;-71
2023/07/06 21:42:36;;;;;;;;;;;;;;;15.74;91.41;101814.03;10395723;28;19947;-71
2023/07/06 21:47:39;;;;;;;;;;;;;;;15.61;92.48;101818.38;10380782;28;19951;-71
2023/07/06 21:52:41;;;;;;;;;;;;;;;15.66;90.88;101818.94;10380509;28;19926;-71
2023/07/06 21:57:43;;;;;;;;;;;;;;;15.50;93.16;101826.09;10380393;28;19925;-71
2023/07/06 22:02:45;;;;;;;;;;;;;;;15.37;94.67;101823.41;10380133;28;19932;-71
2023/07/06 22:07:48;;;;;;;;;;;;;;;15.37;94.05;101829.50;10379438;28;19952;-71
2023/07/06 22:12:50;;;;;;;;;;;;;;;15.44;92.72;101829.97;10379857;28;19933;-72
2023/07/06 22:17:53;;;;;;;;;;;;;;;15.17;93.82;101833.34;10379464;28;19925;-72
2023/07/06 22:22:55;;;;;;;;;;;;;;;15.15;92.65;101831.78;10394412;28;20021;-72
2023/07/06 22:27:57;;;;;;;;;;;;;;;15.08;95.06;101830.41;10379191;28;19936;-71
2023/07/06 22:33:00;;;;;;;;;;;;;;;14.97;96.52;101838.97;10378680;28;20261;-72
2023/07/06 22:38:02;;;;;;;;;;;;;;;15.02;93.79;101834.28;10378957;28;19976;-71
2023/07/06 22:43:04;;;;;;;;;;;;;;;15.01;93.09;101833.44;10378556;28;19929;-71
2023/07/06 22:48:06;;;;;;;;;;;;;;;14.95;93.30;101836.44;10378172;28;20376;-71
2023/07/06 22:53:09;;;;;;;;;;;;;;;14.83;95.37;101831.91;10393225;28;20434;-71
2023/07/06 22:58:12;;;;;;;;;;;;;;;14.80;96.55;101834.72;10377759;28;19930;-71
2023/07/06 23:03:14;;;;;;;;;;;;;;;14.75;96.26;101827.06;10377663;28;20280;-71
2023/07/06 23:08:17;;;;;;;;;;;;;;;14.85;94.28;101833.50;10392751;28;19932;-72
2023/07/06 23:13:19;;;;;;;;;;;;;;;14.61;97.18;101830.50;10377435;28;19926;-72
2023/07/06 23:18:24;;;;;;;;;;;;;;;14.54;99.74;101825.63;10375224;28;20000;-72
2023/07/06 23:23:28;;;;;;;;;;;;;;;14.59;100.00;101834.16;10391785;28;19925;-72
2023/07/06 23:28:33;;;;;;;;;;;;;;;14.62;95.82;101834.81;10359420;28;19925;-72
2023/07/06 23:33:39;;;;;;;;;;;;;;;14.76;97.45;101835.81;10376562;28;19925;-72
2023/07/06 23:38:45;;;;;;;;;;;;;;;14.65;97.50;101836.44;10376468;28;19932;-72
2023/07/06 23:43:50;;;;;;;;;;;;;;;14.42;100.00;101824.56;10407781;28;19926;-71
2023/07/06 23:48:52;;;;;;;;;;;;;;;14.43;100.00;101831.53;10375981;28;20343;-72
2023/07/06 23:53:55;;;;;;;;;;;;;;;14.36;100.00;101833.66;10375879;28;20422;-72
2023/07/06 23:58:57;;;;;;;;;;;;;;;14.64;98.63;101838.25;10375590;28;20017;-71
